createdAt,value
2023-02-11T00:00:16.812Z,38.41
2023-02-11T00:02:49.448Z,38.77
2023-02-11T00:05:21.987Z,38.56
2023-02-11T00:07:54.543Z,38.82
2023-02-11T00:10:27.151Z,38.84
2023-02-11T00:12:59.705Z,38.36
2023-02-11T00:15:32.208Z,38.37
2023-02-11T00:18:04.753Z,38.66
2023-02-11T00:20:40.080Z,38.51
2023-02-11T00:23:13.375Z,38.70
2023-02-11T00:25:45.963Z,38.40
2023-02-11T00:28:18.471Z,38.30
2023-02-11T00:30:56.569Z,38.43
2023-02-11T00:33:29.136Z,38.17
2023-02-11T00:36:14.298Z,38.24
2023-02-11T00:38:48.341Z,38.41
2023-02-11T00:41:22.023Z,38.38
2023-02-11T00:43:54.572Z,38.31
2023-02-11T00:46:27.220Z,37.86
2023-02-11T00:48:59.726Z,38.50
2023-02-11T00:51:32.464Z,38.55
2023-02-11T00:54:06.554Z,38.18
2023-02-11T00:56:39.147Z,38.23
2023-02-11T00:59:11.644Z,38.68
2023-02-11T01:01:44.269Z,37.70
2023-02-11T01:04:16.852Z,37.51
2023-02-11T01:06:50.544Z,38.11
2023-02-11T01:09:23.053Z,38.40
2023-02-11T01:11:55.562Z,38.34
2023-02-11T01:14:28.007Z,38.12
2023-02-11T01:17:00.494Z,38.19
2023-02-11T01:19:33.114Z,38.09
2023-02-11T01:22:06.485Z,38.00
2023-02-11T01:24:38.995Z,37.97
2023-02-11T01:27:11.507Z,37.85
2023-02-11T01:29:44.008Z,38.37
2023-02-11T01:32:16.721Z,38.19
2023-02-11T01:34:50.102Z,38.32
2023-02-11T01:37:22.634Z,38.11
2023-02-11T01:39:55.161Z,38.30
2023-02-11T01:42:28.626Z,37.73
2023-02-11T01:45:57.602Z,38.36
2023-02-11T01:48:36.434Z,38.33
2023-02-11T01:51:24.107Z,38.29
2023-02-11T01:54:16.667Z,38.21
2023-02-11T01:57:13.415Z,38.17
2023-02-11T02:00:01.829Z,38.20
2023-02-11T02:02:37.213Z,37.66
2023-02-11T02:05:34.545Z,37.95
2023-02-11T02:08:27.659Z,38.16
2023-02-11T02:11:00.960Z,37.75
2023-02-11T02:13:35.933Z,38.19
2023-02-11T02:16:14.353Z,37.99
2023-02-11T02:19:41.480Z,38.21
2023-02-11T02:23:20.844Z,38.22
2023-02-11T02:26:39.523Z,38.24
2023-02-11T02:29:36.899Z,38.19
2023-02-11T02:32:41.167Z,38.00
2023-02-11T02:35:39.098Z,38.16
2023-02-11T02:38:13.612Z,37.98
2023-02-11T02:40:54.827Z,37.93
2023-02-11T02:43:29.292Z,38.02
2023-02-11T02:46:18.135Z,38.48
2023-02-11T02:48:52.888Z,38.40
2023-02-11T02:51:52.615Z,37.98
2023-02-11T02:55:00.525Z,37.95
2023-02-11T02:57:58.504Z,37.93
2023-02-11T03:01:08.460Z,38.17
2023-02-11T03:04:03.267Z,38.28
2023-02-11T03:06:48.178Z,37.74
2023-02-11T03:09:37.923Z,37.68
2023-02-11T03:12:13.422Z,37.62
2023-02-11T03:14:50.080Z,37.69
2023-02-11T03:17:26.016Z,38.37
2023-02-11T03:20:00.512Z,38.19
2023-02-11T03:22:42.780Z,38.02
2023-02-11T03:25:16.375Z,38.63
2023-02-11T03:28:04.838Z,38.13
2023-02-11T03:30:51.621Z,37.94
2023-02-11T03:33:53.048Z,38.00
2023-02-11T03:36:45.964Z,38.21
2023-02-11T03:39:28.688Z,37.99
2023-02-11T03:42:03.965Z,37.74
2023-02-11T03:44:46.258Z,38.12
2023-02-11T03:47:26.098Z,38.00
2023-02-11T03:50:02.857Z,37.89
2023-02-11T03:52:38.025Z,38.50
2023-02-11T03:55:17.793Z,38.04
2023-02-11T03:57:50.334Z,37.81
2023-02-11T04:00:36.541Z,38.10
2023-02-11T04:03:10.833Z,37.86
2023-02-11T04:05:43.327Z,37.84
2023-02-11T04:08:15.845Z,37.97
2023-02-11T04:10:48.292Z,38.01
2023-02-11T04:13:20.795Z,38.27
2023-02-11T04:15:53.670Z,37.53
2023-02-11T04:18:26.329Z,37.97
2023-02-11T04:20:58.881Z,37.75
2023-02-11T04:23:31.799Z,38.43
2023-02-11T04:26:04.632Z,37.92
2023-02-11T04:28:37.197Z,37.39
2023-02-11T04:31:11.914Z,37.26
2023-02-11T04:33:44.470Z,37.46
2023-02-11T04:36:17.183Z,38.08
2023-02-11T04:38:49.645Z,37.65
2023-02-11T04:41:22.097Z,37.98
2023-02-11T04:43:54.696Z,37.54
2023-02-11T04:46:27.686Z,37.58
2023-02-11T04:49:00.205Z,38.33
2023-02-11T04:51:32.930Z,37.85
2023-02-11T04:54:05.625Z,37.97
2023-02-11T04:56:38.619Z,37.73
2023-02-11T04:59:13.212Z,37.75
2023-02-11T05:01:45.775Z,38.29
2023-02-11T05:04:18.820Z,38.01
2023-02-11T05:06:51.306Z,38.30
2023-02-11T05:09:23.786Z,37.91
2023-02-11T05:11:56.250Z,37.71
2023-02-11T05:14:28.726Z,37.74
2023-02-11T05:17:01.321Z,38.18
2023-02-11T05:19:33.928Z,37.71
2023-02-11T05:22:06.464Z,37.81
2023-02-11T05:24:39.016Z,37.69
2023-02-11T05:27:11.566Z,37.63
2023-02-11T05:29:44.118Z,37.52
2023-02-11T05:32:16.578Z,38.17
2023-02-11T05:34:49.091Z,37.77
2023-02-11T05:37:21.764Z,37.77
2023-02-11T05:39:54.310Z,38.37
2023-02-11T05:42:26.982Z,38.05
2023-02-11T05:44:59.591Z,37.76
2023-02-11T05:47:32.064Z,37.57
2023-02-11T05:50:05.094Z,37.47
2023-02-11T05:52:37.550Z,37.72
2023-02-11T05:55:10.523Z,38.02
2023-02-11T05:57:43.127Z,37.79
2023-02-11T06:00:16.374Z,37.81
2023-02-11T06:02:48.996Z,37.87
2023-02-11T06:05:21.617Z,37.86
2023-02-11T06:07:54.181Z,38.06
2023-02-11T06:10:27.373Z,38.04
2023-02-11T06:13:01.757Z,38.09
2023-02-11T06:15:34.327Z,37.86
2023-02-11T06:18:07.956Z,38.00
2023-02-11T06:20:41.443Z,37.68
2023-02-11T06:23:14.171Z,37.86
2023-02-11T06:25:46.750Z,38.12
2023-02-11T06:28:19.945Z,38.14
2023-02-11T06:30:52.499Z,38.38
2023-02-11T06:33:25.284Z,38.16
2023-02-11T06:35:57.764Z,38.07
2023-02-11T06:38:30.391Z,37.95
2023-02-11T06:41:02.979Z,37.93
2023-02-11T06:43:35.485Z,37.77
2023-02-11T06:46:09.280Z,37.66
2023-02-11T06:48:44.654Z,38.03
2023-02-11T06:51:18.398Z,37.98
2023-02-11T06:53:51.094Z,37.75
2023-02-11T06:56:27.249Z,37.62
2023-02-11T06:59:00.379Z,37.43
2023-02-11T07:01:33.208Z,37.90
2023-02-11T07:04:06.735Z,37.53
2023-02-11T07:06:39.182Z,37.45
2023-02-11T07:09:11.740Z,37.39
2023-02-11T07:11:44.308Z,37.17
2023-02-11T07:14:16.926Z,37.39
2023-02-11T07:16:49.391Z,37.34
2023-02-11T07:19:21.935Z,37.82
2023-02-11T07:21:55.186Z,37.01
2023-02-11T07:24:27.716Z,37.18
2023-02-11T07:27:00.229Z,36.99
2023-02-11T07:29:33.192Z,37.00
2023-02-11T07:32:05.978Z,36.97
2023-02-11T07:34:38.665Z,37.26
2023-02-11T07:37:11.239Z,37.25
2023-02-11T07:39:43.735Z,37.20
2023-02-11T07:42:16.311Z,37.22
2023-02-11T07:44:50.560Z,37.21
2023-02-11T07:47:23.237Z,36.97
2023-02-11T07:49:56.765Z,37.26
2023-02-11T07:52:31.039Z,37.27
2023-02-11T07:55:04.935Z,36.98
2023-02-11T07:57:37.822Z,37.09
2023-02-11T08:00:11.399Z,37.38
2023-02-11T08:02:43.882Z,37.05
2023-02-11T08:05:16.543Z,37.11
2023-02-11T08:07:53.373Z,36.92
2023-02-11T08:10:25.855Z,37.41
2023-02-11T08:12:58.385Z,37.11
2023-02-11T08:15:30.896Z,37.31
2023-02-11T08:18:03.435Z,37.35
2023-02-11T08:20:35.880Z,37.02
2023-02-11T08:23:08.405Z,37.77
2023-02-11T08:25:40.960Z,37.49
2023-02-11T08:28:13.565Z,37.95
2023-02-11T08:30:46.094Z,37.46
2023-02-11T08:33:18.650Z,37.90
2023-02-11T08:35:51.436Z,37.65
2023-02-11T08:38:23.931Z,37.72
2023-02-11T08:40:56.419Z,37.44
2023-02-11T08:43:29.129Z,37.46
2023-02-11T08:46:02.550Z,37.90
2023-02-11T08:48:35.842Z,38.04
2023-02-11T08:51:20.157Z,37.56
2023-02-11T08:53:53.777Z,37.55
2023-02-11T08:56:27.719Z,37.38
2023-02-11T08:59:00.236Z,37.74
2023-02-11T09:01:33.771Z,37.57
2023-02-11T09:04:06.369Z,37.58
2023-02-11T09:06:39.822Z,37.49
2023-02-11T09:09:16.900Z,37.65
2023-02-11T09:11:49.363Z,37.27
2023-02-11T09:14:24.135Z,38.03
2023-02-11T09:16:57.357Z,37.65
2023-02-11T09:19:29.995Z,38.09
2023-02-11T09:22:02.673Z,38.03
2023-02-11T09:24:35.225Z,38.18
2023-02-11T09:27:07.754Z,38.05
2023-02-11T09:29:40.250Z,37.70
2023-02-11T09:32:12.979Z,37.82
2023-02-11T09:34:45.676Z,38.54
2023-02-11T09:37:18.221Z,38.40
2023-02-11T09:39:50.736Z,38.28
2023-02-11T09:42:53.602Z,38.11
2023-02-11T09:45:29.914Z,37.85
2023-02-11T09:48:31.080Z,38.01
2023-02-11T09:51:05.731Z,38.27
2023-02-11T09:53:43.164Z,39.01
2023-02-11T09:56:16.052Z,38.74
2023-02-11T09:58:48.633Z,39.14
2023-02-11T10:01:37.026Z,38.76
2023-02-11T10:04:28.419Z,37.91
2023-02-11T10:07:19.049Z,38.23
2023-02-11T10:10:22.445Z,38.41
2023-02-11T10:13:07.919Z,37.99
2023-02-11T10:15:51.991Z,38.63
2023-02-11T10:18:49.290Z,38.58
2023-02-11T10:21:51.469Z,38.29
2023-02-11T10:24:25.083Z,37.95
2023-02-11T10:26:58.307Z,38.34
2023-02-11T10:29:46.100Z,38.46
2023-02-11T10:33:03.038Z,38.66
2023-02-11T10:35:38.473Z,38.13
2023-02-11T10:38:12.080Z,38.34
2023-02-11T10:40:44.981Z,39.03
2023-02-11T10:43:23.568Z,37.95
2023-02-11T10:45:57.621Z,38.15
2023-02-11T10:48:51.482Z,38.21
2023-02-11T10:51:34.163Z,38.56
2023-02-11T10:54:19.170Z,38.09
2023-02-11T10:57:00.027Z,38.36
2023-02-11T10:59:40.267Z,38.04
2023-02-11T11:02:34.365Z,38.07
2023-02-11T11:05:18.581Z,38.92
2023-02-11T11:08:02.282Z,38.57
2023-02-11T11:10:44.055Z,38.02
2023-02-11T11:13:27.188Z,38.46
2023-02-11T11:16:17.100Z,38.49
2023-02-11T11:19:16.284Z,38.57
2023-02-11T11:21:55.176Z,38.82
2023-02-11T11:24:44.531Z,38.77
2023-02-11T11:27:23.238Z,38.29
2023-02-11T11:29:56.854Z,38.53
2023-02-11T11:32:33.484Z,38.87
2023-02-11T11:35:23.546Z,39.01
2023-02-11T11:38:02.358Z,38.22
2023-02-11T11:40:36.723Z,38.44
2023-02-11T11:43:23.028Z,38.70
2023-02-11T11:45:59.562Z,39.13
2023-02-11T11:48:42.640Z,38.26
2023-02-11T11:51:15.633Z,38.51
2023-02-11T11:54:04.911Z,38.69
2023-02-11T11:57:08.106Z,38.52
2023-02-11T11:59:41.521Z,38.71
2023-02-11T12:03:04.754Z,38.62
2023-02-11T12:06:18.507Z,38.64
2023-02-11T12:09:15.357Z,38.65
2023-02-11T12:12:32.379Z,38.73
2023-02-11T12:15:26.380Z,38.39
2023-02-11T12:18:36.023Z,38.55
2023-02-11T12:21:41.159Z,38.52
2023-02-11T12:24:27.550Z,38.49
2023-02-11T12:27:14.312Z,38.80
2023-02-11T12:30:26.928Z,38.40
2023-02-11T12:33:44.718Z,38.10
2023-02-11T12:36:32.105Z,38.28
2023-02-11T12:39:22.731Z,38.66
2023-02-11T12:43:03.640Z,38.11
2023-02-11T12:45:44.935Z,38.83
2023-02-11T12:48:59.283Z,38.88
2023-02-11T12:51:55.433Z,38.46
2023-02-11T12:54:56.767Z,38.60
2023-02-11T12:57:36.166Z,38.55
2023-02-11T13:00:26.399Z,39.38
2023-02-11T13:03:10.964Z,39.12
2023-02-11T13:05:52.510Z,38.94
2023-02-11T13:08:33.699Z,38.57
2023-02-11T13:11:17.646Z,38.98
2023-02-11T13:14:00.536Z,39.54
2023-02-11T13:16:44.557Z,39.10
2023-02-11T13:19:30.307Z,38.99
2023-02-11T13:22:13.259Z,39.43
2023-02-11T13:25:06.093Z,39.56
2023-02-11T13:27:58.364Z,39.04
2023-02-11T13:30:36.762Z,38.92
2023-02-11T13:33:32.630Z,39.09
2023-02-11T13:36:05.056Z,39.21
2023-02-11T13:38:38.780Z,39.00
2023-02-11T13:41:21.157Z,39.33
2023-02-11T13:44:26.567Z,39.04
2023-02-11T13:47:04.908Z,39.19
2023-02-11T13:49:42.368Z,39.41
2023-02-11T13:52:27.599Z,39.65
2023-02-11T13:55:22.462Z,39.12
2023-02-11T13:58:06.956Z,39.54
2023-02-11T14:00:39.370Z,39.71
2023-02-11T14:03:30.352Z,39.30
2023-02-11T14:06:27.370Z,39.01
2023-02-11T14:09:09.003Z,39.83
2023-02-11T14:11:41.791Z,40.49
2023-02-11T14:14:25.829Z,40.78
2023-02-11T14:16:58.340Z,40.57
2023-02-11T14:19:40.286Z,40.98
2023-02-11T14:22:29.824Z,41.38
2023-02-11T14:25:15.397Z,41.50
2023-02-11T14:28:16.725Z,41.91
2023-02-11T14:31:07.632Z,41.95
2023-02-11T14:34:28.727Z,41.41
2023-02-11T14:37:50.310Z,42.61
2023-02-11T14:40:34.242Z,42.09
2023-02-11T14:43:16.869Z,41.98
2023-02-11T14:45:56.257Z,41.55
2023-02-11T14:48:37.475Z,42.40
2023-02-11T14:51:18.687Z,42.57
2023-02-11T14:54:00.456Z,42.28
2023-02-11T14:56:34.404Z,42.00
2023-02-11T14:59:20.355Z,42.23
2023-02-11T15:01:56.410Z,42.32
2023-02-11T15:04:36.088Z,42.55
2023-02-11T15:07:11.905Z,42.52
2023-02-11T15:09:52.480Z,42.35
2023-02-11T15:12:28.422Z,42.35
2023-02-11T15:15:01.136Z,42.41
2023-02-11T15:17:33.913Z,42.77
2023-02-11T15:20:15.580Z,42.46
2023-02-11T15:22:56.354Z,42.67
2023-02-11T15:25:29.152Z,42.49
2023-02-11T15:28:02.390Z,42.64
2023-02-11T15:30:35.267Z,43.04
2023-02-11T15:33:25.195Z,42.92
2023-02-11T15:36:01.565Z,43.37
2023-02-11T15:38:34.128Z,42.60
2023-02-11T15:41:34.643Z,42.84
2023-02-11T15:44:28.574Z,43.68
2023-02-11T15:47:01.202Z,43.58
2023-02-11T15:49:33.888Z,43.87
2023-02-11T15:52:08.431Z,43.54
2023-02-11T15:54:47.807Z,43.55
2023-02-11T15:57:22.942Z,43.90
2023-02-11T15:59:56.853Z,44.24
2023-02-11T16:02:34.662Z,44.71
2023-02-11T16:05:09.483Z,44.25
2023-02-11T16:07:41.890Z,44.20
2023-02-11T16:10:20.158Z,44.78
2023-02-11T16:12:55.629Z,44.11
2023-02-11T16:15:58.261Z,43.73
2023-02-11T16:18:39.065Z,44.34
2023-02-11T16:21:17.411Z,44.10
2023-02-11T16:23:54.650Z,44.35
2023-02-11T16:26:34.503Z,44.62
2023-02-11T16:29:15.010Z,44.01
2023-02-11T16:31:48.860Z,44.75
2023-02-11T16:34:24.761Z,44.82
2023-02-11T16:36:57.285Z,44.70
2023-02-11T16:39:29.787Z,44.30
2023-02-11T16:42:02.703Z,45.13
2023-02-11T16:44:35.465Z,45.01
2023-02-11T16:47:24.038Z,45.06
2023-02-11T16:49:58.612Z,44.62
2023-02-11T16:52:31.763Z,45.36
2023-02-11T16:55:06.096Z,44.70
2023-02-11T16:57:38.730Z,44.28
2023-02-11T17:00:16.334Z,44.49
2023-02-11T17:02:48.856Z,44.64
2023-02-11T17:05:25.138Z,45.42
2023-02-11T17:07:58.031Z,45.02
2023-02-11T17:10:30.788Z,45.04
2023-02-11T17:13:05.061Z,44.26
2023-02-11T17:15:37.555Z,44.85
2023-02-11T17:18:14.276Z,45.05
2023-02-11T17:20:47.042Z,44.50
2023-02-11T17:23:19.657Z,44.75
2023-02-11T17:25:56.651Z,45.02
2023-02-11T17:28:29.502Z,45.13
2023-02-11T17:31:09.002Z,44.84
2023-02-11T17:33:42.796Z,44.87
2023-02-11T17:36:15.363Z,44.27
2023-02-11T17:38:47.851Z,44.14
2023-02-11T17:41:20.402Z,44.30
2023-02-11T17:43:53.274Z,44.89
2023-02-11T17:46:28.128Z,44.52
2023-02-11T17:49:02.142Z,44.63
2023-02-11T17:51:38.574Z,45.00
2023-02-11T17:54:15.970Z,45.33
2023-02-11T17:56:50.712Z,45.35
2023-02-11T17:59:23.428Z,46.03
2023-02-11T18:01:55.944Z,45.88
2023-02-11T18:04:28.513Z,46.22
2023-02-11T18:07:01.118Z,45.74
2023-02-11T18:09:40.899Z,45.82
2023-02-11T18:12:13.528Z,46.11
2023-02-11T18:14:46.028Z,45.61
2023-02-11T18:17:18.545Z,45.58
2023-02-11T18:19:54.570Z,45.62
2023-02-11T18:22:27.547Z,45.74
2023-02-11T18:25:00.060Z,46.04
2023-02-11T18:27:32.844Z,45.11
2023-02-11T18:30:07.718Z,45.31
2023-02-11T18:32:40.294Z,45.52
2023-02-11T18:35:15.131Z,45.15
2023-02-11T18:37:48.093Z,45.36
2023-02-11T18:40:20.632Z,45.70
2023-02-11T18:42:53.175Z,45.62
2023-02-11T18:45:28.528Z,45.47
2023-02-11T18:48:03.530Z,45.39
2023-02-11T18:50:36.034Z,45.31
2023-02-11T18:53:08.651Z,45.56
2023-02-11T18:55:44.153Z,45.24
2023-02-11T18:58:16.680Z,45.50
2023-02-11T19:00:50.842Z,45.62
2023-02-11T19:03:23.338Z,45.18
2023-02-11T19:05:55.876Z,45.96
2023-02-11T19:08:28.487Z,45.31
2023-02-11T19:11:04.342Z,45.35
2023-02-11T19:13:36.886Z,45.01
2023-02-11T19:16:11.680Z,45.42
2023-02-11T19:18:44.614Z,45.33
2023-02-11T19:21:17.136Z,45.53
2023-02-11T19:23:49.663Z,45.21
2023-02-11T19:26:29.392Z,45.29
2023-02-11T19:29:02.291Z,44.95
2023-02-11T19:31:35.118Z,45.06
2023-02-11T19:34:08.137Z,45.00
2023-02-11T19:36:41.617Z,45.27
2023-02-11T19:39:14.251Z,45.05
2023-02-11T19:41:47.177Z,44.99
2023-02-11T19:44:19.798Z,45.03
2023-02-11T19:46:53.285Z,45.04
2023-02-11T19:49:26.377Z,45.24
2023-02-11T19:51:59.175Z,45.02
2023-02-11T19:54:31.609Z,45.42
2023-02-11T19:57:04.139Z,45.32
2023-02-11T19:59:36.702Z,45.01
2023-02-11T20:02:12.934Z,45.15
2023-02-11T20:04:46.166Z,45.42
2023-02-11T20:07:18.669Z,45.21
2023-02-11T20:09:53.543Z,45.01
2023-02-11T20:12:26.004Z,44.97
2023-02-11T20:14:58.500Z,44.78
2023-02-11T20:17:31.071Z,44.81
2023-02-11T20:20:03.623Z,44.81
2023-02-11T20:22:36.239Z,45.01
2023-02-11T20:25:10.826Z,44.94
2023-02-11T20:27:43.339Z,44.60
2023-02-11T20:30:16.611Z,44.83
2023-02-11T20:32:49.128Z,44.98
2023-02-11T20:35:21.601Z,44.61
2023-02-11T20:37:54.161Z,43.92
2023-02-11T20:40:26.627Z,44.55
2023-02-11T20:42:59.314Z,44.91
2023-02-11T20:45:35.118Z,43.75
2023-02-11T20:48:07.618Z,43.69
2023-02-11T20:50:40.268Z,43.93
2023-02-11T20:53:12.808Z,43.68
2023-02-11T20:55:45.374Z,43.73
2023-02-11T20:58:17.885Z,43.81
2023-02-11T21:00:50.415Z,43.91
2023-02-11T21:03:22.974Z,43.45
2023-02-11T21:05:58.823Z,44.09
2023-02-11T21:08:31.384Z,43.46
2023-02-11T21:11:04.080Z,43.40
2023-02-11T21:13:37.881Z,43.88
2023-02-11T21:16:16.428Z,43.99
2023-02-11T21:18:50.685Z,43.88
2023-02-11T21:21:23.892Z,43.76
2023-02-11T21:23:58.299Z,43.46
2023-02-11T21:26:30.877Z,43.78
2023-02-11T21:29:05.339Z,43.16
2023-02-11T21:31:38.530Z,43.47
2023-02-11T21:34:11.221Z,43.49
2023-02-11T21:36:45.143Z,43.33
2023-02-11T21:39:19.142Z,44.21
2023-02-11T21:41:52.184Z,44.32
2023-02-11T21:44:24.715Z,43.99
2023-02-11T21:46:57.263Z,43.68
2023-02-11T21:49:29.750Z,44.23
2023-02-11T21:52:02.260Z,43.68
2023-02-11T21:54:34.737Z,43.78
2023-02-11T21:57:07.269Z,43.22
2023-02-11T21:59:39.850Z,43.73
2023-02-11T22:02:12.341Z,43.98
2023-02-11T22:04:44.884Z,43.98
2023-02-11T22:07:18.215Z,43.90
2023-02-11T22:09:52.154Z,43.54
2023-02-11T22:12:24.617Z,43.67
2023-02-11T22:14:57.135Z,43.04
2023-02-11T22:17:29.723Z,43.41
2023-02-11T22:20:02.347Z,43.44
2023-02-11T22:22:35.270Z,43.49
2023-02-11T22:25:08.163Z,43.06
2023-02-11T22:27:40.609Z,42.96
2023-02-11T22:30:14.147Z,42.83
2023-02-11T22:32:47.306Z,43.25
2023-02-11T22:35:19.945Z,42.99
2023-02-11T22:37:52.454Z,43.28
2023-02-11T22:40:25.002Z,43.73
2023-02-11T22:42:57.452Z,43.13
2023-02-11T22:45:29.910Z,43.01
2023-02-11T22:48:02.378Z,42.65
2023-02-11T22:50:35.198Z,43.05
2023-02-11T22:53:07.758Z,43.27
2023-02-11T22:55:40.428Z,42.62
2023-02-11T22:58:12.939Z,42.92
2023-02-11T23:00:45.520Z,43.31
2023-02-11T23:03:18.002Z,42.93
2023-02-11T23:05:50.573Z,43.27
2023-02-11T23:08:23.118Z,43.01
2023-02-11T23:10:55.608Z,43.15
2023-02-11T23:13:28.054Z,43.06
2023-02-11T23:16:08.827Z,43.23
2023-02-11T23:18:43.387Z,43.31
2023-02-11T23:21:22.188Z,43.08
2023-02-11T23:24:11.838Z,43.21
2023-02-11T23:26:44.871Z,43.62
2023-02-11T23:29:17.459Z,43.09
2023-02-11T23:31:50.125Z,43.18
2023-02-11T23:34:25.411Z,42.75
2023-02-11T23:36:59.145Z,43.19
2023-02-11T23:39:31.635Z,43.06
2023-02-11T23:42:04.491Z,43.63
2023-02-11T23:44:37.009Z,43.35
2023-02-11T23:47:09.653Z,43.01
2023-02-11T23:49:42.192Z,43.25
2023-02-11T23:52:15.017Z,43.18
2023-02-11T23:54:48.213Z,42.92
2023-02-11T23:57:20.748Z,42.79
2023-02-11T23:59:53.198Z,43.18
